createdAt,value
2022-11-06T00:01:38.722Z,37.65
2022-11-06T00:04:05.827Z,37.05
2022-11-06T00:06:49.189Z,33.55
2022-11-06T00:09:19.098Z,37.35
2022-11-06T00:11:51.916Z,41.47
2022-11-06T00:14:19.504Z,34.45
2022-11-06T00:16:48.392Z,38.10
2022-11-06T00:19:16.173Z,34.90
2022-11-06T00:21:43.492Z,30.95
2022-11-06T00:24:13.640Z,35.53
2022-11-06T00:26:40.874Z,35.92
2022-11-06T00:29:13.784Z,37.42
2022-11-06T00:31:40.597Z,36.80
2022-11-06T00:34:07.777Z,35.03
2022-11-06T00:36:37.892Z,42.25
2022-11-06T00:39:06.175Z,38.67
2022-11-06T00:41:33.212Z,42.58
2022-11-06T00:44:01.596Z,31.40
2022-11-06T00:46:28.891Z,38.65
2022-11-06T00:48:56.535Z,34.05
2022-11-06T00:51:30.807Z,42.20
2022-11-06T00:54:00.736Z,42.15
2022-11-06T00:56:27.933Z,37.13
2022-11-06T00:58:55.583Z,38.90
2022-11-06T01:01:34.285Z,40.78
2022-11-06T01:04:06.950Z,32.10
2022-11-06T01:06:38.527Z,47.47
2022-11-06T01:09:06.825Z,38.53
2022-11-06T01:11:59.231Z,36.08
2022-11-06T01:14:24.774Z,30.80
2022-11-06T01:16:51.974Z,31.20
2022-11-06T01:19:20.969Z,33.15
2022-11-06T01:21:50.058Z,37.85
2022-11-06T01:24:22.814Z,30.48
2022-11-06T01:27:12.525Z,34.80
2022-11-06T01:29:37.953Z,35.00
2022-11-06T01:32:06.796Z,35.30
2022-11-06T01:34:33.770Z,33.33
2022-11-06T01:37:00.519Z,31.42
2022-11-06T01:39:27.398Z,35.42
2022-11-06T01:41:54.696Z,30.05
2022-11-06T01:44:33.443Z,33.22
2022-11-06T01:47:02.190Z,35.75
2022-11-06T01:49:35.177Z,35.30
2022-11-06T01:52:08.095Z,35.13
2022-11-06T01:54:36.813Z,43.60
2022-11-06T01:57:04.769Z,29.20
2022-11-06T01:59:38.643Z,39.45
2022-11-06T02:02:05.836Z,28.13
2022-11-06T02:04:36.465Z,34.22
2022-11-06T02:07:04.502Z,33.72
2022-11-06T02:09:33.259Z,31.27
2022-11-06T02:12:14.249Z,33.80
2022-11-06T02:14:57.760Z,40.10
2022-11-06T02:17:36.517Z,34.80
2022-11-06T02:20:15.328Z,35.08
2022-11-06T02:23:08.208Z,33.28
2022-11-06T02:25:47.149Z,28.60
2022-11-06T02:28:36.269Z,39.10
2022-11-06T02:31:13.427Z,31.52
2022-11-06T02:33:49.354Z,41.50
2022-11-06T02:36:20.234Z,35.95
2022-11-06T02:38:53.802Z,32.97
2022-11-06T02:41:25.602Z,28.27
2022-11-06T02:43:55.751Z,31.77
2022-11-06T02:46:39.993Z,33.78
2022-11-06T02:49:17.188Z,34.20
2022-11-06T02:51:48.656Z,36.85
2022-11-06T02:54:18.840Z,36.25
2022-11-06T02:56:48.008Z,32.20
2022-11-06T02:59:24.540Z,33.28
2022-11-06T03:02:05.356Z,29.70
2022-11-06T03:04:44.695Z,34.20
2022-11-06T03:07:28.876Z,32.90
2022-11-06T03:09:56.627Z,23.42
2022-11-06T03:12:26.271Z,34.55
2022-11-06T03:15:03.669Z,37.30
2022-11-06T03:17:45.010Z,30.42
2022-11-06T03:20:11.852Z,34.63
2022-11-06T03:22:55.720Z,33.75
2022-11-06T03:25:29.157Z,36.67
2022-11-06T03:28:08.052Z,31.95
2022-11-06T03:30:39.441Z,36.60
2022-11-06T03:33:30.875Z,43.17
2022-11-06T03:36:06.041Z,41.25
2022-11-06T03:38:42.560Z,40.38
2022-11-06T03:41:14.975Z,45.10
2022-11-06T03:43:44.380Z,43.38
2022-11-06T03:46:20.186Z,49.63
2022-11-06T03:48:52.584Z,33.50
2022-11-06T03:51:33.282Z,42.78
2022-11-06T03:54:04.343Z,46.45
2022-11-06T03:56:32.948Z,46.92
2022-11-06T03:59:04.488Z,44.13
2022-11-06T04:01:36.414Z,44.20
2022-11-06T04:04:12.382Z,35.25
2022-11-06T04:06:55.409Z,38.08
2022-11-06T04:09:45.430Z,43.67
2022-11-06T04:12:35.908Z,41.88
2022-11-06T04:15:03.032Z,38.42
2022-11-06T04:17:33.869Z,40.55
2022-11-06T04:20:05.302Z,50.00
2022-11-06T04:22:45.950Z,46.83
2022-11-06T04:25:47.633Z,45.05
2022-11-06T04:28:26.231Z,38.42
2022-11-06T04:31:08.154Z,45.30
2022-11-06T04:33:58.202Z,42.20
2022-11-06T04:36:48.672Z,37.22
2022-11-06T04:39:55.443Z,44.25
2022-11-06T04:42:34.272Z,40.78
2022-11-06T04:45:07.993Z,47.22
2022-11-06T04:47:37.473Z,47.85
2022-11-06T04:50:07.818Z,54.92
2022-11-06T04:52:37.324Z,49.25
2022-11-06T04:55:04.651Z,50.25
2022-11-06T04:57:31.418Z,41.75
2022-11-06T04:59:58.354Z,43.80
2022-11-06T05:02:25.227Z,44.58
2022-11-06T05:04:52.167Z,38.13
2022-11-06T05:07:18.900Z,48.83
2022-11-06T05:09:45.914Z,43.72
2022-11-06T05:12:12.709Z,40.78
2022-11-06T05:14:39.581Z,43.70
2022-11-06T05:17:06.373Z,43.08
2022-11-06T05:19:33.211Z,48.08
2022-11-06T05:22:18.588Z,39.38
2022-11-06T05:24:45.503Z,38.75
2022-11-06T05:27:12.313Z,43.03
2022-11-06T05:29:39.905Z,41.15
2022-11-06T05:32:07.017Z,41.67
2022-11-06T05:34:34.006Z,40.08
2022-11-06T05:37:01.118Z,34.75
2022-11-06T05:39:28.041Z,48.88
2022-11-06T05:41:55.149Z,45.40
2022-11-06T05:44:22.259Z,37.42
2022-11-06T05:46:50.105Z,34.70
2022-11-06T05:49:18.910Z,33.95
2022-11-06T05:51:46.551Z,42.55
2022-11-06T05:54:13.408Z,39.90
2022-11-06T05:56:40.220Z,33.20
2022-11-06T05:59:07.110Z,36.58
2022-11-06T06:01:34.247Z,44.05
2022-11-06T06:04:01.237Z,43.72
2022-11-06T06:06:28.513Z,41.00
2022-11-06T06:08:55.285Z,47.47
2022-11-06T06:11:22.120Z,38.58
2022-11-06T06:13:48.877Z,39.88
2022-11-06T06:16:16.135Z,33.85
2022-11-06T06:18:43.136Z,36.65
2022-11-06T06:21:10.105Z,40.78
2022-11-06T06:23:37.182Z,39.53
2022-11-06T06:26:05.252Z,34.17
2022-11-06T06:28:33.013Z,50.05
2022-11-06T06:31:03.421Z,46.28
2022-11-06T06:33:30.530Z,36.72
2022-11-06T06:35:57.675Z,43.70
2022-11-06T06:38:26.041Z,42.92
2022-11-06T06:40:54.259Z,41.45
2022-11-06T06:43:21.393Z,45.53
2022-11-06T06:45:53.621Z,46.80
2022-11-06T06:48:20.439Z,41.53
2022-11-06T06:50:47.280Z,44.72
2022-11-06T06:53:14.162Z,47.28
2022-11-06T06:55:42.207Z,46.90
2022-11-06T06:58:17.875Z,42.63
2022-11-06T07:00:50.572Z,37.33
2022-11-06T07:03:17.640Z,46.78
2022-11-06T07:05:44.828Z,49.30
2022-11-06T07:08:12.133Z,42.35
2022-11-06T07:10:39.244Z,49.75
2022-11-06T07:13:06.244Z,40.85
2022-11-06T07:15:33.128Z,43.13
2022-11-06T07:18:04.886Z,45.45
2022-11-06T07:20:34.389Z,45.17
2022-11-06T07:23:08.197Z,45.40
2022-11-06T07:25:35.592Z,46.78
2022-11-06T07:28:04.956Z,36.20
2022-11-06T07:30:36.031Z,50.25
2022-11-06T07:33:05.159Z,48.05
2022-11-06T07:35:33.740Z,44.15
2022-11-06T07:38:07.202Z,39.67
2022-11-06T07:40:35.826Z,42.13
2022-11-06T07:43:07.834Z,44.88
2022-11-06T07:45:35.600Z,45.95
2022-11-06T07:48:02.785Z,44.70
2022-11-06T07:50:30.018Z,43.15
2022-11-06T07:52:56.902Z,43.67
2022-11-06T07:55:24.375Z,42.92
2022-11-06T07:57:53.428Z,47.65
2022-11-06T08:00:27.247Z,33.17
2022-11-06T08:02:54.535Z,44.38
2022-11-06T08:05:21.632Z,45.13
2022-11-06T08:07:48.605Z,34.40
2022-11-06T08:10:18.203Z,42.72
2022-11-06T08:12:45.079Z,36.13
2022-11-06T08:15:13.503Z,46.50
2022-11-06T08:17:40.322Z,39.72
2022-11-06T08:20:08.019Z,46.88
2022-11-06T08:22:34.893Z,38.25
2022-11-06T08:25:01.791Z,38.50
2022-11-06T08:27:36.268Z,34.85
2022-11-06T08:30:03.229Z,42.42
2022-11-06T08:32:34.836Z,43.30
2022-11-06T08:38:55.147Z,38.30
2022-11-06T08:41:22.268Z,51.25
2022-11-06T08:43:56.568Z,44.30
2022-11-06T08:46:26.398Z,45.58
2022-11-06T08:49:04.991Z,38.42
2022-11-06T08:51:41.380Z,41.55
2022-11-06T08:54:13.239Z,35.22
2022-11-06T09:00:00.674Z,46.65
2022-11-06T09:02:33.386Z,52.20
2022-11-06T09:05:33.378Z,44.53
2022-11-06T09:08:10.702Z,44.33
2022-11-06T09:16:36.700Z,43.70
2022-11-06T09:19:39.646Z,46.72
2022-11-06T09:23:23.861Z,42.97
2022-11-06T09:44:25.235Z,36.67
2022-11-06T09:47:00.874Z,32.15
2022-11-06T09:52:35.248Z,32.08
2022-11-06T09:55:10.330Z,34.47
2022-11-06T09:57:55.322Z,32.92
2022-11-06T10:00:23.186Z,34.88
2022-11-06T10:02:57.287Z,30.38
2022-11-06T10:05:30.676Z,35.17
2022-11-06T10:08:03.208Z,34.92
2022-11-06T10:10:47.314Z,30.27
2022-11-06T10:13:39.202Z,34.45
2022-11-06T10:16:13.595Z,34.42
2022-11-06T10:19:05.477Z,24.20
2022-11-06T10:21:42.821Z,35.28
2022-11-06T10:24:24.913Z,33.03
2022-11-06T10:26:59.655Z,31.65
2022-11-06T10:29:27.008Z,38.03
2022-11-06T10:32:15.467Z,29.27
2022-11-06T10:34:48.467Z,29.77
2022-11-06T10:37:35.738Z,33.33
2022-11-06T10:40:07.453Z,27.65
2022-11-06T10:42:40.410Z,30.98
2022-11-06T10:45:18.441Z,28.55
2022-11-06T10:48:15.120Z,29.15
2022-11-06T10:51:13.368Z,28.88
2022-11-06T10:53:52.483Z,28.10
2022-11-06T10:56:35.799Z,22.20
2022-11-06T10:59:03.190Z,30.35
2022-11-06T11:01:30.517Z,25.17
2022-11-06T11:04:00.141Z,26.90
2022-11-06T11:06:27.430Z,26.52
2022-11-06T11:08:54.458Z,23.67
2022-11-06T11:11:26.817Z,29.63
2022-11-06T11:13:56.834Z,32.22
2022-11-06T11:16:33.702Z,26.15
2022-11-06T11:19:15.621Z,28.63
2022-11-06T11:21:56.447Z,37.50
2022-11-06T11:24:23.762Z,43.47
2022-11-06T11:26:55.501Z,27.52
2022-11-06T11:29:31.866Z,33.72
2022-11-06T11:32:05.074Z,32.08
2022-11-06T11:34:37.755Z,28.83
2022-11-06T11:37:13.259Z,28.10
2022-11-06T11:42:32.347Z,29.77
2022-11-06T11:45:16.100Z,26.67
2022-11-06T11:47:47.013Z,25.20
2022-11-06T11:50:16.973Z,21.45
2022-11-06T11:52:47.880Z,20.83
2022-11-06T11:55:23.628Z,24.00
2022-11-06T11:57:53.318Z,24.35
2022-11-06T12:00:22.955Z,27.05
2022-11-06T12:02:52.988Z,23.52
2022-11-06T12:05:27.605Z,21.83
2022-11-06T12:07:57.840Z,26.85
2022-11-06T12:10:36.179Z,19.77
2022-11-06T12:13:15.269Z,18.83
2022-11-06T12:16:04.534Z,24.13
2022-11-06T12:18:41.350Z,23.05
2022-11-06T12:21:27.994Z,18.75
2022-11-06T12:24:02.323Z,20.48
2022-11-06T12:26:47.912Z,24.40
2022-11-06T12:29:23.838Z,21.33
2022-11-06T12:32:07.405Z,24.23
2022-11-06T12:34:58.413Z,22.45
2022-11-06T12:38:04.456Z,23.05
2022-11-06T12:40:31.913Z,23.93
2022-11-06T12:43:12.477Z,21.70
2022-11-06T12:46:06.148Z,28.67
2022-11-06T12:48:59.721Z,26.90
2022-11-06T12:51:38.862Z,27.25
2022-11-06T12:54:26.845Z,30.98
2022-11-06T12:57:21.640Z,27.45
2022-11-06T13:00:12.516Z,25.13
2022-11-06T13:03:11.629Z,24.58
2022-11-06T13:06:09.072Z,30.95
2022-11-06T14:12:48.536Z,18.52
2022-11-06T14:16:06.610Z,23.00
2022-11-06T14:19:22.173Z,26.90
2022-11-06T14:23:03.387Z,21.10
2022-11-06T14:25:57.430Z,18.83
2022-11-06T15:03:10.541Z,24.05
2022-11-06T15:05:42.424Z,24.27
2022-11-06T15:11:52.890Z,20.88
2022-11-06T15:14:40.847Z,23.00
2022-11-06T15:17:18.008Z,29.90
2022-11-06T15:19:55.593Z,19.35
2022-11-06T15:23:11.012Z,22.27
2022-11-06T15:30:00.045Z,22.75
2022-11-06T15:37:05.629Z,24.80
2022-11-06T15:40:02.534Z,26.45
2022-11-06T15:42:34.236Z,26.90
2022-11-06T15:46:07.520Z,30.75
2022-11-06T15:49:44.995Z,24.50
2022-11-06T15:52:18.993Z,20.88
2022-11-06T15:55:23.267Z,32.97
2022-11-06T15:57:56.558Z,33.85
2022-11-06T16:00:27.974Z,31.80
2022-11-06T16:03:08.005Z,27.23
2022-11-06T16:05:37.754Z,28.95
2022-11-06T16:08:12.686Z,30.17
2022-11-06T16:10:41.674Z,32.70
2022-11-06T16:13:16.326Z,27.83
2022-11-06T16:15:49.879Z,23.85
2022-11-06T16:19:51.484Z,23.88
2022-11-06T16:26:28.827Z,29.83
2022-11-06T17:03:59.887Z,27.67
2022-11-06T17:06:37.689Z,27.50
2022-11-06T17:09:37.899Z,34.88
2022-11-06T17:12:58.777Z,39.00
2022-11-06T17:15:28.213Z,23.08
2022-11-06T17:18:03.899Z,22.63
2022-11-06T17:20:32.651Z,32.13
2022-11-06T17:22:59.723Z,34.97
2022-11-06T17:25:26.745Z,31.77
2022-11-06T17:27:58.793Z,33.50
2022-11-06T17:30:41.554Z,31.55
2022-11-06T17:33:15.268Z,29.52
2022-11-06T17:39:41.055Z,32.50
2022-11-06T17:50:31.156Z,37.45
2022-11-06T18:46:54.096Z,37.42
2022-11-06T18:52:57.867Z,42.78
2022-11-06T18:55:28.766Z,40.95
2022-11-06T18:58:11.669Z,52.65
2022-11-06T19:01:13.535Z,38.55
2022-11-06T19:03:52.122Z,45.92
2022-11-06T19:10:26.279Z,35.65
2022-11-06T19:15:36.647Z,32.13
2022-11-06T19:21:10.525Z,43.53
2022-11-06T19:23:47.761Z,48.35
2022-11-06T19:26:30.598Z,35.95
2022-11-06T19:29:00.514Z,37.33
2022-11-06T19:39:44.425Z,35.45
2022-11-06T19:44:08.792Z,43.45
2022-11-06T20:12:07.119Z,31.88
2022-11-06T20:23:24.605Z,28.50
2022-11-06T21:20:48.644Z,37.08
2022-11-06T21:23:53.971Z,37.80
2022-11-06T21:26:43.893Z,44.20
2022-11-06T21:29:14.200Z,38.55
2022-11-06T21:31:47.582Z,40.45
2022-11-06T21:34:21.519Z,38.53
2022-11-06T21:36:48.572Z,37.40
2022-11-06T21:39:18.599Z,42.83
2022-11-06T21:42:11.675Z,45.33
2022-11-06T21:44:53.560Z,45.13
2022-11-06T21:47:43.426Z,42.20
2022-11-06T21:50:15.922Z,31.55
2022-11-06T21:53:09.843Z,37.50
2022-11-06T21:55:58.586Z,37.63
2022-11-06T21:58:30.370Z,37.53
2022-11-06T22:01:03.800Z,39.97
2022-11-06T22:03:32.409Z,43.53
2022-11-06T22:06:10.104Z,38.78
2022-11-06T22:08:41.666Z,39.17
2022-11-06T22:11:43.909Z,40.58
2022-11-06T22:14:17.020Z,43.20
2022-11-06T22:16:46.671Z,44.92
2022-11-06T22:19:15.254Z,35.15
2022-11-06T22:21:42.679Z,37.97
2022-11-06T22:24:12.071Z,40.15
2022-11-06T22:26:39.864Z,38.33
2022-11-06T22:29:12.824Z,41.75
2022-11-06T22:31:40.089Z,43.33
2022-11-06T22:34:06.838Z,46.92
2022-11-06T22:36:33.680Z,36.58
2022-11-06T22:39:18.032Z,43.90
2022-11-06T22:41:50.227Z,48.92
2022-11-06T22:44:19.823Z,37.70
2022-11-06T22:46:47.092Z,41.38
2022-11-06T22:49:14.165Z,40.78
2022-11-06T22:51:45.931Z,50.33
2022-11-06T22:54:16.042Z,48.83
2022-11-06T22:56:46.370Z,31.30
2022-11-06T22:59:13.821Z,38.42
2022-11-06T23:01:42.741Z,39.97
2022-11-06T23:04:17.021Z,44.97
2022-11-06T23:06:45.232Z,41.42
2022-11-06T23:09:13.871Z,48.70
2022-11-06T23:11:41.401Z,47.75
2022-11-06T23:14:09.390Z,55.47
2022-11-06T23:17:01.473Z,39.03
2022-11-06T23:19:31.132Z,52.47
2022-11-06T23:22:17.220Z,49.60
2022-11-06T23:24:44.402Z,48.78
2022-11-06T23:27:11.918Z,46.08
2022-11-06T23:29:39.176Z,54.15
2022-11-06T23:32:06.784Z,45.97
2022-11-06T23:34:34.074Z,44.38
2022-11-06T23:37:01.183Z,50.15
2022-11-06T23:39:28.374Z,51.00
2022-11-06T23:41:55.590Z,56.92
2022-11-06T23:44:41.594Z,45.70
2022-11-06T23:49:35.637Z,40.30
2022-11-06T23:52:02.980Z,52.80
2022-11-06T23:54:30.171Z,47.25
2022-11-06T23:56:57.233Z,50.83
2022-11-06T23:59:24.201Z,53.63
